sensor_id;sensor_type;location;lat;lon;timestamp;P1;durP1;ratioP1;P2;durP2;ratioP2
80985;SDS011;70451;51.226;6.412;2023-07-20T00:01:57;4.57;;;2.40;;
80985;SDS011;70451;51.226;6.412;2023-07-20T00:04:13;5.40;;;2.10;;
80985;SDS011;70451;51.226;6.412;2023-07-20T00:06:28;4.10;;;2.22;;
80985;SDS011;70451;51.226;6.412;2023-07-20T00:08:44;5.28;;;2.33;;
80985;SDS011;70451;51.226;6.412;2023-07-20T00:10:59;2.75;;;1.77;;
80985;SDS011;70451;51.226;6.412;2023-07-20T00:13:14;3.97;;;2.10;;
80985;SDS011;70451;51.226;6.412;2023-07-20T00:15:31;4.82;;;2.50;;
80985;SDS011;70451;51.226;6.412;2023-07-20T00:17:46;4.50;;;2.65;;
80985;SDS011;70451;51.226;6.412;2023-07-20T00:20:01;3.60;;;1.90;;
80985;SDS011;70451;51.226;6.412;2023-07-20T00:22:17;2.85;;;2.33;;
80985;SDS011;70451;51.226;6.412;2023-07-20T00:24:32;4.50;;;2.45;;
80985;SDS011;70451;51.226;6.412;2023-07-20T00:26:47;3.53;;;2.42;;
80985;SDS011;70451;51.226;6.412;2023-07-20T00:29:03;3.42;;;2.53;;
80985;SDS011;70451;51.226;6.412;2023-07-20T00:31:18;2.97;;;2.28;;
80985;SDS011;70451;51.226;6.412;2023-07-20T00:33:34;4.03;;;2.20;;
80985;SDS011;70451;51.226;6.412;2023-07-20T00:35:49;4.85;;;2.80;;
80985;SDS011;70451;51.226;6.412;2023-07-20T00:38:04;3.67;;;2.63;;
80985;SDS011;70451;51.226;6.412;2023-07-20T00:40:20;6.28;;;2.65;;
80985;SDS011;70451;51.226;6.412;2023-07-20T00:42:35;5.22;;;2.83;;
80985;SDS011;70451;51.226;6.412;2023-07-20T00:44:51;3.70;;;2.60;;
80985;SDS011;70451;51.226;6.412;2023-07-20T00:47:06;5.13;;;2.42;;
80985;SDS011;70451;51.226;6.412;2023-07-20T00:49:21;4.22;;;2.58;;
80985;SDS011;70451;51.226;6.412;2023-07-20T00:51:38;5.22;;;2.88;;
80985;SDS011;70451;51.226;6.412;2023-07-20T00:53:54;4.85;;;2.88;;
80985;SDS011;70451;51.226;6.412;2023-07-20T00:56:09;5.47;;;3.20;;
80985;SDS011;70451;51.226;6.412;2023-07-20T00:58:25;4.90;;;3.03;;
80985;SDS011;70451;51.226;6.412;2023-07-20T01:05:34;6.20;;;2.72;;
80985;SDS011;70451;51.226;6.412;2023-07-20T01:07:58;5.45;;;2.72;;
80985;SDS011;70451;51.226;6.412;2023-07-20T01:12:41;6.00;;;2.63;;
80985;SDS011;70451;51.226;6.412;2023-07-20T01:14:58;4.35;;;2.67;;
80985;SDS011;70451;51.226;6.412;2023-07-20T01:17:14;4.85;;;2.58;;
80985;SDS011;70451;51.226;6.412;2023-07-20T01:19:29;5.38;;;2.72;;
80985;SDS011;70451;51.226;6.412;2023-07-20T01:21:47;3.78;;;2.78;;
80985;SDS011;70451;51.226;6.412;2023-07-20T01:24:19;3.28;;;2.25;;
80985;SDS011;70451;51.226;6.412;2023-07-20T01:32:00;4.72;;;2.38;;
80985;SDS011;70451;51.226;6.412;2023-07-20T01:34:18;4.18;;;2.22;;
80985;SDS011;70451;51.226;6.412;2023-07-20T01:36:37;4.32;;;2.53;;
80985;SDS011;70451;51.226;6.412;2023-07-20T01:38:53;3.72;;;2.03;;
80985;SDS011;70451;51.226;6.412;2023-07-20T01:41:09;3.03;;;2.17;;
80985;SDS011;70451;51.226;6.412;2023-07-20T01:43:26;5.25;;;2.50;;
80985;SDS011;70451;51.226;6.412;2023-07-20T01:45:41;8.07;;;2.63;;
80985;SDS011;70451;51.226;6.412;2023-07-20T01:47:56;3.60;;;1.80;;
80985;SDS011;70451;51.226;6.412;2023-07-20T01:50:12;3.97;;;2.22;;
80985;SDS011;70451;51.226;6.412;2023-07-20T01:52:27;3.80;;;2.35;;
80985;SDS011;70451;51.226;6.412;2023-07-20T01:54:42;4.75;;;2.13;;
80985;SDS011;70451;51.226;6.412;2023-07-20T01:56:57;4.50;;;2.10;;
80985;SDS011;70451;51.226;6.412;2023-07-20T01:59:13;4.18;;;2.40;;
80985;SDS011;70451;51.226;6.412;2023-07-20T02:01:28;4.28;;;2.47;;
80985;SDS011;70451;51.226;6.412;2023-07-20T02:03:43;4.50;;;2.45;;
80985;SDS011;70451;51.226;6.412;2023-07-20T02:05:59;4.82;;;2.22;;
80985;SDS011;70451;51.226;6.412;2023-07-20T02:08:14;3.55;;;1.83;;
80985;SDS011;70451;51.226;6.412;2023-07-20T02:10:31;3.83;;;2.55;;
80985;SDS011;70451;51.226;6.412;2023-07-20T02:12:46;4.40;;;2.25;;
80985;SDS011;70451;51.226;6.412;2023-07-20T02:15:02;3.15;;;2.05;;
80985;SDS011;70451;51.226;6.412;2023-07-20T02:17:18;3.80;;;2.53;;
80985;SDS011;70451;51.226;6.412;2023-07-20T02:19:34;4.30;;;2.45;;
80985;SDS011;70451;51.226;6.412;2023-07-20T02:21:49;5.10;;;2.78;;
80985;SDS011;70451;51.226;6.412;2023-07-20T02:24:05;4.05;;;2.45;;
80985;SDS011;70451;51.226;6.412;2023-07-20T02:26:20;4.15;;;2.42;;
80985;SDS011;70451;51.226;6.412;2023-07-20T02:28:35;4.03;;;2.55;;
80985;SDS011;70451;51.226;6.412;2023-07-20T02:30:50;3.75;;;2.22;;
80985;SDS011;70451;51.226;6.412;2023-07-20T02:33:06;6.37;;;2.60;;
80985;SDS011;70451;51.226;6.412;2023-07-20T02:35:22;4.78;;;2.30;;
80985;SDS011;70451;51.226;6.412;2023-07-20T02:37:37;4.07;;;2.63;;
80985;SDS011;70451;51.226;6.412;2023-07-20T02:39:53;5.40;;;2.47;;
80985;SDS011;70451;51.226;6.412;2023-07-20T02:42:08;6.73;;;2.83;;
80985;SDS011;70451;51.226;6.412;2023-07-20T02:44:23;3.97;;;2.60;;
80985;SDS011;70451;51.226;6.412;2023-07-20T02:46:39;5.05;;;2.42;;
80985;SDS011;70451;51.226;6.412;2023-07-20T02:48:54;4.80;;;2.50;;
80985;SDS011;70451;51.226;6.412;2023-07-20T02:51:09;5.68;;;2.63;;
80985;SDS011;70451;51.226;6.412;2023-07-20T02:53:27;4.35;;;2.70;;
80985;SDS011;70451;51.226;6.412;2023-07-20T02:55:42;5.18;;;2.70;;
80985;SDS011;70451;51.226;6.412;2023-07-20T02:57:57;4.90;;;2.85;;
80985;SDS011;70451;51.226;6.412;2023-07-20T03:00:13;4.88;;;2.63;;
80985;SDS011;70451;51.226;6.412;2023-07-20T03:02:30;3.85;;;2.30;;
80985;SDS011;70451;51.226;6.412;2023-07-20T03:04:45;4.63;;;2.90;;
80985;SDS011;70451;51.226;6.412;2023-07-20T03:07:01;4.68;;;2.55;;
80985;SDS011;70451;51.226;6.412;2023-07-20T03:09:16;4.38;;;2.70;;
80985;SDS011;70451;51.226;6.412;2023-07-20T03:11:32;5.07;;;3.00;;
80985;SDS011;70451;51.226;6.412;2023-07-20T03:13:47;5.03;;;2.60;;
80985;SDS011;70451;51.226;6.412;2023-07-20T03:16:03;4.50;;;2.60;;
80985;SDS011;70451;51.226;6.412;2023-07-20T03:18:18;3.80;;;2.42;;
80985;SDS011;70451;51.226;6.412;2023-07-20T03:20:35;5.88;;;2.78;;
80985;SDS011;70451;51.226;6.412;2023-07-20T03:22:50;5.63;;;2.85;;
80985;SDS011;70451;51.226;6.412;2023-07-20T03:25:06;4.53;;;2.80;;
80985;SDS011;70451;51.226;6.412;2023-07-20T03:27:21;4.80;;;2.50;;
80985;SDS011;70451;51.226;6.412;2023-07-20T03:29:37;7.50;;;3.42;;
80985;SDS011;70451;51.226;6.412;2023-07-20T03:31:53;3.85;;;2.55;;
80985;SDS011;70451;51.226;6.412;2023-07-20T03:34:08;5.07;;;2.88;;
80985;SDS011;70451;51.226;6.412;2023-07-20T03:36:23;3.85;;;2.63;;
80985;SDS011;70451;51.226;6.412;2023-07-20T03:38:39;4.10;;;2.67;;
80985;SDS011;70451;51.226;6.412;2023-07-20T03:40:55;4.97;;;2.60;;
80985;SDS011;70451;51.226;6.412;2023-07-20T03:43:11;6.78;;;3.45;;
80985;SDS011;70451;51.226;6.412;2023-07-20T03:45:27;3.88;;;2.58;;
80985;SDS011;70451;51.226;6.412;2023-07-20T03:47:42;7.28;;;2.88;;
80985;SDS011;70451;51.226;6.412;2023-07-20T03:49:59;5.03;;;3.05;;
80985;SDS011;70451;51.226;6.412;2023-07-20T03:52:14;3.85;;;2.67;;
80985;SDS011;70451;51.226;6.412;2023-07-20T03:54:30;6.55;;;3.03;;
80985;SDS011;70451;51.226;6.412;2023-07-20T03:56:45;4.53;;;2.90;;
80985;SDS011;70451;51.226;6.412;2023-07-20T03:59:01;6.05;;;2.72;;
80985;SDS011;70451;51.226;6.412;2023-07-20T04:01:17;6.10;;;3.22;;
80985;SDS011;70451;51.226;6.412;2023-07-20T04:03:32;6.88;;;2.85;;
80985;SDS011;70451;51.226;6.412;2023-07-20T04:05:47;6.63;;;3.08;;
80985;SDS011;70451;51.226;6.412;2023-07-20T04:08:03;4.43;;;2.75;;
80985;SDS011;70451;51.226;6.412;2023-07-20T04:10:18;5.60;;;3.33;;
80985;SDS011;70451;51.226;6.412;2023-07-20T04:12:34;4.85;;;2.92;;
80985;SDS011;70451;51.226;6.412;2023-07-20T04:14:50;5.90;;;3.20;;
80985;SDS011;70451;51.226;6.412;2023-07-20T04:17:06;5.38;;;2.65;;
80985;SDS011;70451;51.226;6.412;2023-07-20T04:19:21;4.97;;;3.00;;
80985;SDS011;70451;51.226;6.412;2023-07-20T04:21:39;5.40;;;3.05;;
80985;SDS011;70451;51.226;6.412;2023-07-20T04:23:56;5.03;;;2.75;;
80985;SDS011;70451;51.226;6.412;2023-07-20T04:26:11;4.53;;;2.97;;
80985;SDS011;70451;51.226;6.412;2023-07-20T04:28:27;7.57;;;4.18;;
80985;SDS011;70451;51.226;6.412;2023-07-20T04:30:42;7.70;;;4.32;;
80985;SDS011;70451;51.226;6.412;2023-07-20T04:32:58;7.90;;;3.67;;
80985;SDS011;70451;51.226;6.412;2023-07-20T04:35:17;6.78;;;4.22;;
80985;SDS011;70451;51.226;6.412;2023-07-20T04:37:52;8.48;;;4.03;;
80985;SDS011;70451;51.226;6.412;2023-07-20T04:40:08;7.20;;;3.65;;
80985;SDS011;70451;51.226;6.412;2023-07-20T04:42:23;9.35;;;5.10;;
80985;SDS011;70451;51.226;6.412;2023-07-20T04:44:39;10.10;;;5.50;;
80985;SDS011;70451;51.226;6.412;2023-07-20T04:46:54;10.70;;;5.55;;
80985;SDS011;70451;51.226;6.412;2023-07-20T04:49:09;9.07;;;5.32;;
80985;SDS011;70451;51.226;6.412;2023-07-20T04:51:24;11.50;;;5.82;;
80985;SDS011;70451;51.226;6.412;2023-07-20T04:53:40;9.63;;;5.80;;
80985;SDS011;70451;51.226;6.412;2023-07-20T04:55:55;9.98;;;6.05;;
80985;SDS011;70451;51.226;6.412;2023-07-20T04:58:10;12.60;;;5.95;;
80985;SDS011;70451;51.226;6.412;2023-07-20T05:00:26;11.50;;;7.03;;
80985;SDS011;70451;51.226;6.412;2023-07-20T05:02:41;12.55;;;6.85;;
80985;SDS011;70451;51.226;6.412;2023-07-20T05:04:56;13.05;;;7.00;;
80985;SDS011;70451;51.226;6.412;2023-07-20T05:07:12;14.00;;;8.18;;
80985;SDS011;70451;51.226;6.412;2023-07-20T05:09:27;13.45;;;6.72;;
80985;SDS011;70451;51.226;6.412;2023-07-20T05:11:42;12.07;;;7.05;;
80985;SDS011;70451;51.226;6.412;2023-07-20T05:14:00;13.65;;;7.28;;
80985;SDS011;70451;51.226;6.412;2023-07-20T05:16:15;13.93;;;8.35;;
80985;SDS011;70451;51.226;6.412;2023-07-20T05:18:30;14.40;;;8.52;;
80985;SDS011;70451;51.226;6.412;2023-07-20T05:20:46;15.82;;;10.00;;
80985;SDS011;70451;51.226;6.412;2023-07-20T05:23:02;15.55;;;9.23;;
80985;SDS011;70451;51.226;6.412;2023-07-20T05:25:18;14.50;;;8.48;;
80985;SDS011;70451;51.226;6.412;2023-07-20T05:27:34;13.75;;;8.70;;
80985;SDS011;70451;51.226;6.412;2023-07-20T05:29:51;17.08;;;9.75;;
80985;SDS011;70451;51.226;6.412;2023-07-20T05:32:06;14.70;;;8.88;;
80985;SDS011;70451;51.226;6.412;2023-07-20T05:34:22;13.82;;;8.40;;
80985;SDS011;70451;51.226;6.412;2023-07-20T05:36:38;15.95;;;9.15;;
80985;SDS011;70451;51.226;6.412;2023-07-20T05:38:53;14.88;;;9.13;;
80985;SDS011;70451;51.226;6.412;2023-07-20T05:41:09;16.40;;;9.00;;
80985;SDS011;70451;51.226;6.412;2023-07-20T05:43:25;15.80;;;8.48;;
80985;SDS011;70451;51.226;6.412;2023-07-20T05:45:43;12.25;;;7.53;;
80985;SDS011;70451;51.226;6.412;2023-07-20T05:48:00;12.95;;;8.45;;
80985;SDS011;70451;51.226;6.412;2023-07-20T05:50:15;12.35;;;7.40;;
80985;SDS011;70451;51.226;6.412;2023-07-20T05:52:30;12.25;;;7.80;;
80985;SDS011;70451;51.226;6.412;2023-07-20T05:54:46;12.30;;;8.25;;
80985;SDS011;70451;51.226;6.412;2023-07-20T05:57:01;11.98;;;7.28;;
80985;SDS011;70451;51.226;6.412;2023-07-20T05:59:16;12.68;;;8.02;;
80985;SDS011;70451;51.226;6.412;2023-07-20T06:01:32;12.77;;;7.80;;
80985;SDS011;70451;51.226;6.412;2023-07-20T06:03:47;11.90;;;7.43;;
80985;SDS011;70451;51.226;6.412;2023-07-20T06:06:03;11.68;;;7.45;;
80985;SDS011;70451;51.226;6.412;2023-07-20T06:08:23;13.02;;;7.80;;
80985;SDS011;70451;51.226;6.412;2023-07-20T06:10:38;12.18;;;7.68;;
80985;SDS011;70451;51.226;6.412;2023-07-20T06:12:54;11.77;;;7.40;;
80985;SDS011;70451;51.226;6.412;2023-07-20T06:15:31;16.02;;;7.70;;
80985;SDS011;70451;51.226;6.412;2023-07-20T06:17:49;15.45;;;8.35;;
80985;SDS011;70451;51.226;6.412;2023-07-20T06:20:05;13.90;;;7.50;;
80985;SDS011;70451;51.226;6.412;2023-07-20T06:22:22;13.00;;;7.88;;
80985;SDS011;70451;51.226;6.412;2023-07-20T06:24:37;12.65;;;8.40;;
80985;SDS011;70451;51.226;6.412;2023-07-20T06:26:52;12.32;;;7.82;;
80985;SDS011;70451;51.226;6.412;2023-07-20T06:29:08;12.85;;;8.07;;
80985;SDS011;70451;51.226;6.412;2023-07-20T06:31:26;10.18;;;6.90;;
80985;SDS011;70451;51.226;6.412;2023-07-20T06:33:41;10.50;;;7.50;;
80985;SDS011;70451;51.226;6.412;2023-07-20T06:35:57;11.00;;;8.15;;
80985;SDS011;70451;51.226;6.412;2023-07-20T06:38:12;12.82;;;8.18;;
80985;SDS011;70451;51.226;6.412;2023-07-20T06:40:28;12.65;;;7.75;;
80985;SDS011;70451;51.226;6.412;2023-07-20T06:42:43;10.70;;;6.38;;
80985;SDS011;70451;51.226;6.412;2023-07-20T06:44:59;10.77;;;6.57;;
80985;SDS011;70451;51.226;6.412;2023-07-20T06:47:14;12.70;;;7.30;;
80985;SDS011;70451;51.226;6.412;2023-07-20T06:49:30;10.48;;;6.47;;
80985;SDS011;70451;51.226;6.412;2023-07-20T06:51:45;12.60;;;7.85;;
80985;SDS011;70451;51.226;6.412;2023-07-20T06:54:00;10.80;;;6.50;;
80985;SDS011;70451;51.226;6.412;2023-07-20T06:56:16;10.13;;;7.13;;
80985;SDS011;70451;51.226;6.412;2023-07-20T06:58:31;11.73;;;7.03;;
80985;SDS011;70451;51.226;6.412;2023-07-20T07:00:48;10.30;;;6.40;;
80985;SDS011;70451;51.226;6.412;2023-07-20T07:03:03;11.55;;;6.45;;
80985;SDS011;70451;51.226;6.412;2023-07-20T07:05:19;10.50;;;6.07;;
80985;SDS011;70451;51.226;6.412;2023-07-20T07:07:34;10.25;;;5.80;;
80985;SDS011;70451;51.226;6.412;2023-07-20T07:09:50;9.00;;;5.70;;
80985;SDS011;70451;51.226;6.412;2023-07-20T07:12:05;8.27;;;5.43;;
80985;SDS011;70451;51.226;6.412;2023-07-20T07:14:21;7.38;;;4.85;;
80985;SDS011;70451;51.226;6.412;2023-07-20T07:16:36;7.35;;;4.78;;
80985;SDS011;70451;51.226;6.412;2023-07-20T07:18:51;6.45;;;4.13;;
80985;SDS011;70451;51.226;6.412;2023-07-20T07:21:07;5.70;;;3.97;;
80985;SDS011;70451;51.226;6.412;2023-07-20T07:23:22;5.82;;;4.00;;
80985;SDS011;70451;51.226;6.412;2023-07-20T07:25:37;5.10;;;3.70;;
80985;SDS011;70451;51.226;6.412;2023-07-20T07:27:53;5.57;;;3.65;;
80985;SDS011;70451;51.226;6.412;2023-07-20T07:30:09;6.13;;;3.80;;
80985;SDS011;70451;51.226;6.412;2023-07-20T07:32:24;9.95;;;4.38;;
80985;SDS011;70451;51.226;6.412;2023-07-20T07:34:40;7.75;;;5.82;;
80985;SDS011;70451;51.226;6.412;2023-07-20T07:36:55;5.47;;;4.03;;
80985;SDS011;70451;51.226;6.412;2023-07-20T07:39:11;5.43;;;4.18;;
80985;SDS011;70451;51.226;6.412;2023-07-20T07:41:26;7.60;;;4.63;;
80985;SDS011;70451;51.226;6.412;2023-07-20T07:43:41;7.00;;;4.40;;
80985;SDS011;70451;51.226;6.412;2023-07-20T07:45:57;6.43;;;4.15;;
80985;SDS011;70451;51.226;6.412;2023-07-20T07:48:13;6.05;;;4.13;;
80985;SDS011;70451;51.226;6.412;2023-07-20T07:50:29;5.70;;;3.90;;
80985;SDS011;70451;51.226;6.412;2023-07-20T07:52:44;5.03;;;3.50;;
80985;SDS011;70451;51.226;6.412;2023-07-20T07:55:00;7.00;;;3.53;;
80985;SDS011;70451;51.226;6.412;2023-07-20T07:57:15;5.70;;;3.42;;
80985;SDS011;70451;51.226;6.412;2023-07-20T07:59:30;4.35;;;3.17;;
80985;SDS011;70451;51.226;6.412;2023-07-20T08:01:51;3.85;;;3.10;;
80985;SDS011;70451;51.226;6.412;2023-07-20T08:04:06;3.75;;;2.65;;
80985;SDS011;70451;51.226;6.412;2023-07-20T08:06:21;3.47;;;2.13;;
80985;SDS011;70451;51.226;6.412;2023-07-20T08:08:38;2.63;;;1.90;;
80985;SDS011;70451;51.226;6.412;2023-07-20T08:10:54;2.47;;;1.73;;
80985;SDS011;70451;51.226;6.412;2023-07-20T08:13:10;1.63;;;1.50;;
80985;SDS011;70451;51.226;6.412;2023-07-20T08:15:25;2.08;;;1.50;;
80985;SDS011;70451;51.226;6.412;2023-07-20T08:17:41;2.88;;;1.70;;
80985;SDS011;70451;51.226;6.412;2023-07-20T08:19:57;3.50;;;1.85;;
80985;SDS011;70451;51.226;6.412;2023-07-20T08:22:12;3.30;;;2.65;;
80985;SDS011;70451;51.226;6.412;2023-07-20T08:24:28;3.40;;;2.28;;
80985;SDS011;70451;51.226;6.412;2023-07-20T08:26:43;4.15;;;2.50;;
80985;SDS011;70451;51.226;6.412;2023-07-20T08:28:58;3.65;;;2.65;;
80985;SDS011;70451;51.226;6.412;2023-07-20T08:31:14;3.95;;;2.58;;
80985;SDS011;70451;51.226;6.412;2023-07-20T08:33:29;3.53;;;2.13;;
80985;SDS011;70451;51.226;6.412;2023-07-20T08:35:48;3.58;;;2.55;;
80985;SDS011;70451;51.226;6.412;2023-07-20T08:38:03;2.78;;;2.40;;
80985;SDS011;70451;51.226;6.412;2023-07-20T08:40:19;2.60;;;2.15;;
80985;SDS011;70451;51.226;6.412;2023-07-20T08:42:35;3.83;;;2.55;;
80985;SDS011;70451;51.226;6.412;2023-07-20T08:44:52;4.93;;;2.10;;
80985;SDS011;70451;51.226;6.412;2023-07-20T08:47:09;2.28;;;1.50;;
80985;SDS011;70451;51.226;6.412;2023-07-20T08:49:27;2.30;;;1.73;;
80985;SDS011;70451;51.226;6.412;2023-07-20T08:51:42;2.10;;;1.60;;
80985;SDS011;70451;51.226;6.412;2023-07-20T08:53:59;2.03;;;1.63;;
80985;SDS011;70451;51.226;6.412;2023-07-20T08:56:15;2.10;;;1.75;;
80985;SDS011;70451;51.226;6.412;2023-07-20T08:58:32;2.00;;;1.67;;
80985;SDS011;70451;51.226;6.412;2023-07-20T09:00:50;2.30;;;1.35;;
80985;SDS011;70451;51.226;6.412;2023-07-20T09:03:06;2.55;;;1.42;;
80985;SDS011;70451;51.226;6.412;2023-07-20T09:05:22;2.08;;;1.40;;
80985;SDS011;70451;51.226;6.412;2023-07-20T09:07:40;2.28;;;1.50;;
80985;SDS011;70451;51.226;6.412;2023-07-20T09:09:57;1.60;;;1.30;;
80985;SDS011;70451;51.226;6.412;2023-07-20T09:12:13;1.80;;;1.35;;
80985;SDS011;70451;51.226;6.412;2023-07-20T09:14:30;1.80;;;1.50;;
80985;SDS011;70451;51.226;6.412;2023-07-20T09:16:47;2.70;;;1.40;;
80985;SDS011;70451;51.226;6.412;2023-07-20T09:19:09;2.28;;;1.63;;
80985;SDS011;70451;51.226;6.412;2023-07-20T09:21:27;2.30;;;1.23;;
80985;SDS011;70451;51.226;6.412;2023-07-20T09:23:44;1.85;;;1.40;;
80985;SDS011;70451;51.226;6.412;2023-07-20T09:25:59;1.38;;;1.20;;
80985;SDS011;70451;51.226;6.412;2023-07-20T09:28:15;2.25;;;1.30;;
80985;SDS011;70451;51.226;6.412;2023-07-20T09:30:30;1.88;;;1.60;;
80985;SDS011;70451;51.226;6.412;2023-07-20T09:32:46;1.80;;;1.42;;
80985;SDS011;70451;51.226;6.412;2023-07-20T09:35:02;2.33;;;1.48;;
80985;SDS011;70451;51.226;6.412;2023-07-20T09:37:21;1.98;;;1.27;;
80985;SDS011;70451;51.226;6.412;2023-07-20T09:39:43;1.55;;;1.20;;
80985;SDS011;70451;51.226;6.412;2023-07-20T09:42:00;2.58;;;1.38;;
80985;SDS011;70451;51.226;6.412;2023-07-20T09:44:20;2.38;;;1.52;;
80985;SDS011;70451;51.226;6.412;2023-07-20T09:46:48;1.42;;;1.17;;
80985;SDS011;70451;51.226;6.412;2023-07-20T09:49:05;2.05;;;1.40;;
80985;SDS011;70451;51.226;6.412;2023-07-20T09:51:23;1.55;;;1.30;;
80985;SDS011;70451;51.226;6.412;2023-07-20T09:53:39;1.77;;;1.58;;
80985;SDS011;70451;51.226;6.412;2023-07-20T09:55:54;1.60;;;1.42;;
80985;SDS011;70451;51.226;6.412;2023-07-20T09:58:10;1.50;;;1.30;;
80985;SDS011;70451;51.226;6.412;2023-07-20T10:00:25;1.52;;;1.20;;
80985;SDS011;70451;51.226;6.412;2023-07-20T10:02:44;4.53;;;1.60;;
80985;SDS011;70451;51.226;6.412;2023-07-20T10:05:02;1.40;;;1.30;;
80985;SDS011;70451;51.226;6.412;2023-07-20T10:07:19;3.03;;;1.85;;
80985;SDS011;70451;51.226;6.412;2023-07-20T10:09:39;3.03;;;1.20;;
80985;SDS011;70451;51.226;6.412;2023-07-20T10:11:55;1.80;;;1.38;;
80985;SDS011;70451;51.226;6.412;2023-07-20T10:14:13;2.47;;;1.55;;
80985;SDS011;70451;51.226;6.412;2023-07-20T10:16:35;1.60;;;1.20;;
80985;SDS011;70451;51.226;6.412;2023-07-20T10:19:05;1.60;;;1.30;;
80985;SDS011;70451;51.226;6.412;2023-07-20T10:21:26;1.60;;;1.20;;
80985;SDS011;70451;51.226;6.412;2023-07-20T10:23:42;1.20;;;0.85;;
80985;SDS011;70451;51.226;6.412;2023-07-20T10:25:57;2.30;;;1.20;;
80985;SDS011;70451;51.226;6.412;2023-07-20T10:28:13;2.10;;;1.50;;
80985;SDS011;70451;51.226;6.412;2023-07-20T10:30:29;2.08;;;1.40;;
80985;SDS011;70451;51.226;6.412;2023-07-20T10:32:45;1.23;;;0.98;;
80985;SDS011;70451;51.226;6.412;2023-07-20T10:35:06;1.58;;;1.13;;
80985;SDS011;70451;51.226;6.412;2023-07-20T10:37:46;2.63;;;1.33;;
80985;SDS011;70451;51.226;6.412;2023-07-20T10:42:47;1.10;;;0.98;;
80985;SDS011;70451;51.226;6.412;2023-07-20T10:45:03;1.48;;;1.38;;
80985;SDS011;70451;51.226;6.412;2023-07-20T10:47:19;1.30;;;1.20;;
80985;SDS011;70451;51.226;6.412;2023-07-20T10:49:34;2.13;;;1.30;;
80985;SDS011;70451;51.226;6.412;2023-07-20T10:51:55;1.88;;;1.30;;
80985;SDS011;70451;51.226;6.412;2023-07-20T10:58:47;1.35;;;1.10;;
80985;SDS011;70451;51.226;6.412;2023-07-20T11:01:03;3.72;;;1.50;;
80985;SDS011;70451;51.226;6.412;2023-07-20T11:03:30;2.17;;;1.45;;
80985;SDS011;70451;51.226;6.412;2023-07-20T11:05:46;2.35;;;1.40;;
80985;SDS011;70451;51.226;6.412;2023-07-20T11:08:37;1.20;;;1.10;;
80985;SDS011;70451;51.226;6.412;2023-07-20T11:13:39;2.08;;;1.00;;
80985;SDS011;70451;51.226;6.412;2023-07-20T11:16:09;1.30;;;1.02;;
80985;SDS011;70451;51.226;6.412;2023-07-20T11:18:27;1.00;;;0.82;;
80985;SDS011;70451;51.226;6.412;2023-07-20T11:20:42;1.20;;;1.02;;
80985;SDS011;70451;51.226;6.412;2023-07-20T11:22:58;1.40;;;0.90;;
80985;SDS011;70451;51.226;6.412;2023-07-20T11:25:14;1.38;;;1.10;;
80985;SDS011;70451;51.226;6.412;2023-07-20T11:27:29;1.50;;;1.17;;
80985;SDS011;70451;51.226;6.412;2023-07-20T11:29:45;2.08;;;1.13;;
80985;SDS011;70451;51.226;6.412;2023-07-20T11:32:01;2.17;;;1.20;;
80985;SDS011;70451;51.226;6.412;2023-07-20T11:34:18;1.73;;;1.15;;
80985;SDS011;70451;51.226;6.412;2023-07-20T11:36:34;1.65;;;1.10;;
80985;SDS011;70451;51.226;6.412;2023-07-20T11:38:50;1.30;;;1.10;;
80985;SDS011;70451;51.226;6.412;2023-07-20T11:41:06;1.35;;;1.02;;
80985;SDS011;70451;51.226;6.412;2023-07-20T11:43:21;1.40;;;1.30;;
80985;SDS011;70451;51.226;6.412;2023-07-20T11:45:39;0.93;;;0.80;;
80985;SDS011;70451;51.226;6.412;2023-07-20T11:47:54;1.00;;;0.90;;
80985;SDS011;70451;51.226;6.412;2023-07-20T11:50:13;2.28;;;1.20;;
80985;SDS011;70451;51.226;6.412;2023-07-20T11:52:29;2.17;;;1.35;;
80985;SDS011;70451;51.226;6.412;2023-07-20T11:54:45;1.50;;;1.13;;
80985;SDS011;70451;51.226;6.412;2023-07-20T11:57:02;1.60;;;1.35;;
80985;SDS011;70451;51.226;6.412;2023-07-20T11:59:18;1.20;;;1.08;;
80985;SDS011;70451;51.226;6.412;2023-07-20T12:01:34;2.10;;;1.10;;
80985;SDS011;70451;51.226;6.412;2023-07-20T12:03:50;1.30;;;1.02;;
80985;SDS011;70451;51.226;6.412;2023-07-20T12:06:06;1.40;;;1.02;;
80985;SDS011;70451;51.226;6.412;2023-07-20T12:08:23;1.20;;;0.98;;
80985;SDS011;70451;51.226;6.412;2023-07-20T12:10:41;1.20;;;1.10;;
80985;SDS011;70451;51.226;6.412;2023-07-20T12:13:02;1.20;;;1.10;;
80985;SDS011;70451;51.226;6.412;2023-07-20T12:17:49;4.32;;;1.35;;
80985;SDS011;70451;51.226;6.412;2023-07-20T12:20:06;1.50;;;0.93;;
80985;SDS011;70451;51.226;6.412;2023-07-20T12:22:21;3.20;;;1.17;;
80985;SDS011;70451;51.226;6.412;2023-07-20T12:24:37;1.85;;;1.05;;
80985;SDS011;70451;51.226;6.412;2023-07-20T12:26:55;1.27;;;1.17;;
80985;SDS011;70451;51.226;6.412;2023-07-20T12:29:15;1.73;;;1.15;;
80985;SDS011;70451;51.226;6.412;2023-07-20T12:31:30;1.92;;;1.13;;
80985;SDS011;70451;51.226;6.412;2023-07-20T12:33:45;1.33;;;1.10;;
80985;SDS011;70451;51.226;6.412;2023-07-20T12:36:01;1.23;;;0.95;;
80985;SDS011;70451;51.226;6.412;2023-07-20T12:38:16;2.40;;;1.40;;
80985;SDS011;70451;51.226;6.412;2023-07-20T12:40:31;1.40;;;1.02;;
80985;SDS011;70451;51.226;6.412;2023-07-20T12:42:47;2.67;;;1.10;;
80985;SDS011;70451;51.226;6.412;2023-07-20T12:45:03;1.70;;;1.13;;
80985;SDS011;70451;51.226;6.412;2023-07-20T12:47:18;2.22;;;1.20;;
80985;SDS011;70451;51.226;6.412;2023-07-20T12:49:33;1.45;;;1.20;;
80985;SDS011;70451;51.226;6.412;2023-07-20T12:51:49;1.52;;;1.25;;
80985;SDS011;70451;51.226;6.412;2023-07-20T12:54:04;1.30;;;0.80;;
80985;SDS011;70451;51.226;6.412;2023-07-20T12:56:19;1.42;;;1.10;;
80985;SDS011;70451;51.226;6.412;2023-07-20T12:58:35;1.90;;;0.93;;
80985;SDS011;70451;51.226;6.412;2023-07-20T13:00:52;1.20;;;0.85;;
80985;SDS011;70451;51.226;6.412;2023-07-20T13:03:08;1.63;;;1.00;;
80985;SDS011;70451;51.226;6.412;2023-07-20T13:05:23;1.77;;;1.02;;
80985;SDS011;70451;51.226;6.412;2023-07-20T13:07:39;2.17;;;1.10;;
80985;SDS011;70451;51.226;6.412;2023-07-20T13:09:54;1.67;;;1.20;;
80985;SDS011;70451;51.226;6.412;2023-07-20T13:12:10;1.17;;;0.90;;
80985;SDS011;70451;51.226;6.412;2023-07-20T13:14:25;1.50;;;1.10;;
80985;SDS011;70451;51.226;6.412;2023-07-20T13:16:40;2.03;;;1.25;;
80985;SDS011;70451;51.226;6.412;2023-07-20T13:18:56;2.15;;;1.20;;
80985;SDS011;70451;51.226;6.412;2023-07-20T13:21:11;2.15;;;1.52;;
80985;SDS011;70451;51.226;6.412;2023-07-20T13:23:27;1.92;;;1.10;;
80985;SDS011;70451;51.226;6.412;2023-07-20T13:25:42;1.27;;;0.95;;
80985;SDS011;70451;51.226;6.412;2023-07-20T13:27:57;1.50;;;0.95;;
80985;SDS011;70451;51.226;6.412;2023-07-20T13:30:13;1.35;;;1.00;;
80985;SDS011;70451;51.226;6.412;2023-07-20T13:32:31;1.75;;;1.02;;
80985;SDS011;70451;51.226;6.412;2023-07-20T13:34:47;1.75;;;0.95;;
80985;SDS011;70451;51.226;6.412;2023-07-20T13:37:03;1.58;;;1.02;;
80985;SDS011;70451;51.226;6.412;2023-07-20T13:39:19;1.33;;;1.08;;
80985;SDS011;70451;51.226;6.412;2023-07-20T13:41:34;3.17;;;1.00;;
80985;SDS011;70451;51.226;6.412;2023-07-20T13:43:49;1.60;;;1.08;;
80985;SDS011;70451;51.226;6.412;2023-07-20T13:46:05;1.13;;;1.02;;
80985;SDS011;70451;51.226;6.412;2023-07-20T13:48:20;2.17;;;1.45;;
80985;SDS011;70451;51.226;6.412;2023-07-20T13:50:38;1.20;;;1.10;;
80985;SDS011;70451;51.226;6.412;2023-07-20T13:52:53;1.45;;;1.30;;
80985;SDS011;70451;51.226;6.412;2023-07-20T13:55:08;1.20;;;1.10;;
80985;SDS011;70451;51.226;6.412;2023-07-20T13:57:23;1.17;;;1.00;;
80985;SDS011;70451;51.226;6.412;2023-07-20T13:59:39;1.63;;;1.10;;
80985;SDS011;70451;51.226;6.412;2023-07-20T14:01:54;1.40;;;1.30;;
80985;SDS011;70451;51.226;6.412;2023-07-20T14:04:09;1.30;;;1.20;;
80985;SDS011;70451;51.226;6.412;2023-07-20T14:06:25;1.25;;;1.15;;